createdAt,value
2023-02-03T00:00:00.666Z,5.42
2023-02-03T00:02:27.323Z,5.43
2023-02-03T00:04:53.990Z,5.41
2023-02-03T00:07:22.833Z,5.47
2023-02-03T00:09:49.940Z,5.44
2023-02-03T00:12:17.307Z,5.40
2023-02-03T00:14:44.024Z,5.40
2023-02-03T00:17:11.018Z,5.45
2023-02-03T00:19:38.807Z,5.46
2023-02-03T00:22:05.633Z,5.46
2023-02-03T00:24:33.795Z,5.45
2023-02-03T00:27:00.542Z,5.46
2023-02-03T00:29:27.929Z,5.45
2023-02-03T00:31:55.116Z,5.47
2023-02-03T00:34:22.510Z,5.49
2023-02-03T00:36:49.357Z,5.48
2023-02-03T00:39:16.309Z,5.55
2023-02-03T00:41:44.416Z,5.52
2023-02-03T00:44:11.346Z,5.50
2023-02-03T00:46:38.318Z,5.48
2023-02-03T00:49:05.303Z,5.51
2023-02-03T00:51:32.410Z,5.52
2023-02-03T00:53:59.120Z,5.51
2023-02-03T00:56:26.046Z,5.51
2023-02-03T00:58:54.238Z,5.51
2023-02-03T01:01:21.143Z,5.49
2023-02-03T01:03:50.301Z,5.55
2023-02-03T01:06:19.197Z,5.51
2023-02-03T01:08:47.712Z,5.53
2023-02-03T01:11:17.790Z,5.53
2023-02-03T01:13:47.461Z,5.50
2023-02-03T01:16:20.297Z,5.54
2023-02-03T01:18:47.836Z,5.54
2023-02-03T01:21:16.611Z,5.54
2023-02-03T01:23:45.161Z,5.55
2023-02-03T01:26:14.231Z,5.56
2023-02-03T01:28:41.113Z,5.58
2023-02-03T01:31:12.899Z,5.61
2023-02-03T01:33:42.024Z,5.61
2023-02-03T01:36:09.995Z,5.61
2023-02-03T01:38:37.705Z,5.63
2023-02-03T01:41:07.235Z,5.65
2023-02-03T01:43:35.417Z,5.65
2023-02-03T01:46:07.310Z,5.62
2023-02-03T01:48:34.844Z,5.62
2023-02-03T01:51:04.981Z,5.59
2023-02-03T01:53:33.187Z,5.60
2023-02-03T01:56:01.403Z,5.62
2023-02-03T01:58:32.034Z,5.63
2023-02-03T02:00:59.049Z,5.65
2023-02-03T02:03:31.802Z,5.66
2023-02-03T02:06:03.292Z,5.66
2023-02-03T02:08:31.999Z,5.65
2023-02-03T02:11:01.046Z,5.65
2023-02-03T02:13:29.974Z,5.63
2023-02-03T02:16:06.838Z,5.63
2023-02-03T02:18:46.487Z,5.63
2023-02-03T02:21:40.233Z,5.65
2023-02-03T02:24:40.855Z,5.66
2023-02-03T02:27:19.932Z,5.63
2023-02-03T02:30:31.713Z,5.65
2023-02-03T02:33:20.271Z,5.59
2023-02-03T02:35:56.985Z,5.57
2023-02-03T02:38:38.695Z,5.56
2023-02-03T02:41:14.255Z,5.56
2023-02-03T02:43:47.353Z,5.57
2023-02-03T02:46:24.557Z,5.57
2023-02-03T02:48:59.622Z,5.58
2023-02-03T02:51:29.513Z,5.59
2023-02-03T02:54:00.498Z,5.61
2023-02-03T02:56:30.476Z,5.58
2023-02-03T02:59:02.016Z,5.58
2023-02-03T03:01:29.097Z,5.59
2023-02-03T03:04:00.936Z,5.61
2023-02-03T03:06:34.108Z,5.61
2023-02-03T03:09:05.658Z,5.61
2023-02-03T03:11:37.328Z,5.61
2023-02-03T03:14:07.655Z,5.62
2023-02-03T03:16:38.006Z,5.62
2023-02-03T03:19:11.740Z,5.65
2023-02-03T03:21:43.440Z,5.69
2023-02-03T03:24:15.296Z,5.69
2023-02-03T03:26:47.068Z,5.69
2023-02-03T03:29:18.271Z,5.67
2023-02-03T03:31:45.568Z,5.67
2023-02-03T03:34:16.256Z,5.65
2023-02-03T03:36:46.379Z,5.64
2023-02-03T03:39:21.722Z,5.63
2023-02-03T03:41:58.006Z,5.67
2023-02-03T03:44:29.327Z,5.65
2023-02-03T03:47:05.185Z,5.66
2023-02-03T03:49:36.218Z,5.64
2023-02-03T03:52:08.044Z,5.65
2023-02-03T03:54:37.742Z,5.69
2023-02-03T03:57:10.213Z,5.69
2023-02-03T03:59:41.308Z,5.68
2023-02-03T04:02:08.336Z,5.66
2023-02-03T04:04:38.934Z,5.66
2023-02-03T04:07:05.778Z,5.66
2023-02-03T04:09:32.731Z,5.65
2023-02-03T04:12:03.023Z,5.67
2023-02-03T04:14:30.637Z,5.69
2023-02-03T04:16:57.905Z,5.71
2023-02-03T04:19:25.077Z,5.68
2023-02-03T04:21:53.661Z,5.68
2023-02-03T04:24:25.069Z,5.67
2023-02-03T04:26:51.919Z,5.71
2023-02-03T04:29:18.804Z,5.69
2023-02-03T04:31:45.792Z,5.69
2023-02-03T04:34:13.401Z,5.69
2023-02-03T04:36:40.503Z,5.69
2023-02-03T04:39:08.711Z,5.73
2023-02-03T04:41:35.608Z,5.71
2023-02-03T04:44:02.370Z,5.70
2023-02-03T04:46:29.287Z,5.71
2023-02-03T04:48:56.124Z,5.72
2023-02-03T04:51:24.344Z,5.71
2023-02-03T04:53:51.228Z,5.70
2023-02-03T04:56:19.305Z,5.71
2023-02-03T04:58:46.026Z,5.72
2023-02-03T05:01:13.507Z,5.75
2023-02-03T05:03:40.241Z,5.74
2023-02-03T05:06:07.056Z,5.71
2023-02-03T05:08:34.076Z,5.71
2023-02-03T05:11:02.295Z,5.72
2023-02-03T05:13:30.672Z,5.72
2023-02-03T05:15:57.542Z,5.71
2023-02-03T05:18:24.555Z,5.71
2023-02-03T05:20:52.439Z,5.73
2023-02-03T05:23:19.091Z,5.71
2023-02-03T05:25:46.159Z,5.73
2023-02-03T05:28:12.890Z,5.75
2023-02-03T05:30:41.332Z,5.77
2023-02-03T05:33:08.586Z,5.79
2023-02-03T05:35:36.428Z,5.78
2023-02-03T05:38:03.161Z,5.77
2023-02-03T05:40:48.510Z,5.76
2023-02-03T05:43:15.374Z,5.76
2023-02-03T05:45:43.920Z,5.79
2023-02-03T05:48:11.338Z,5.76
2023-02-03T05:50:39.034Z,5.77
2023-02-03T05:53:09.891Z,5.74
2023-02-03T05:55:36.827Z,5.73
2023-02-03T05:58:04.051Z,5.70
2023-02-03T06:00:31.064Z,5.67
2023-02-03T06:03:02.674Z,5.70
2023-02-03T06:05:31.028Z,5.72
2023-02-03T06:07:58.900Z,5.69
2023-02-03T06:10:26.707Z,5.68
2023-02-03T06:12:56.324Z,5.64
2023-02-03T06:15:22.962Z,5.64
2023-02-03T06:17:51.382Z,5.67
2023-02-03T06:20:20.807Z,5.63
2023-02-03T06:22:47.858Z,5.59
2023-02-03T06:25:14.748Z,5.59
2023-02-03T06:27:42.679Z,5.61
2023-02-03T06:30:11.367Z,5.61
2023-02-03T06:32:38.427Z,5.61
2023-02-03T06:35:05.674Z,5.60
2023-02-03T06:37:38.915Z,5.60
2023-02-03T06:40:06.809Z,5.61
2023-02-03T06:42:33.669Z,5.57
2023-02-03T06:45:00.343Z,5.57
2023-02-03T06:47:27.012Z,5.59
2023-02-03T06:49:53.667Z,5.60
2023-02-03T06:52:20.663Z,5.66
2023-02-03T06:54:52.276Z,5.65
2023-02-03T06:57:19.172Z,5.63
2023-02-03T06:59:45.915Z,5.62
2023-02-03T07:02:12.732Z,5.63
2023-02-03T07:04:41.354Z,5.66
2023-02-03T07:07:08.287Z,5.71
2023-02-03T07:09:34.921Z,5.69
2023-02-03T07:12:02.976Z,5.66
2023-02-03T07:14:31.097Z,5.64
2023-02-03T07:16:57.853Z,5.67
2023-02-03T07:19:24.646Z,5.69
2023-02-03T07:21:51.312Z,5.66
2023-02-03T07:24:18.164Z,5.64
2023-02-03T07:26:44.791Z,5.65
2023-02-03T07:29:12.940Z,5.66
2023-02-03T07:31:40.064Z,5.64
2023-02-03T07:34:06.734Z,5.66
2023-02-03T07:36:33.899Z,5.70
2023-02-03T07:39:00.968Z,5.71
2023-02-03T07:41:27.917Z,5.68
2023-02-03T07:43:54.554Z,5.67
2023-02-03T07:46:23.332Z,5.69
2023-02-03T07:51:31.447Z,5.67
2023-02-03T07:53:58.091Z,5.68
2023-02-03T07:56:26.567Z,5.70
2023-02-03T07:58:53.632Z,5.73
2023-02-03T08:01:23.509Z,5.73
2023-02-03T08:03:50.381Z,5.76
2023-02-03T08:06:18.372Z,5.80
2023-02-03T08:08:46.772Z,5.84
2023-02-03T08:11:13.551Z,5.84
2023-02-03T08:13:40.813Z,5.87
2023-02-03T08:16:08.599Z,5.92
2023-02-03T08:18:53.612Z,5.98
2023-02-03T08:21:23.223Z,6.00
2023-02-03T08:23:49.800Z,6.00
2023-02-03T08:26:18.680Z,6.04
2023-02-03T08:28:48.892Z,6.09
2023-02-03T08:31:15.931Z,6.15
2023-02-03T08:33:42.899Z,6.21
2023-02-03T08:36:12.033Z,6.19
2023-02-03T08:38:40.385Z,6.20
2023-02-03T08:41:11.426Z,6.21
2023-02-03T08:43:39.086Z,6.21
2023-02-03T08:46:07.596Z,6.25
2023-02-03T08:48:34.878Z,6.23
2023-02-03T08:51:01.767Z,6.22
2023-02-03T08:53:29.777Z,6.25
2023-02-03T08:55:56.446Z,6.29
2023-02-03T08:58:23.271Z,6.34
2023-02-03T09:00:53.057Z,6.45
2023-02-03T09:03:20.225Z,6.47
2023-02-03T09:05:47.144Z,6.50
2023-02-03T09:08:14.051Z,6.54
2023-02-03T09:10:42.217Z,6.54
2023-02-03T09:13:09.169Z,6.55
2023-02-03T09:15:36.046Z,6.60
2023-02-03T09:18:03.136Z,6.63
2023-02-03T09:20:30.360Z,6.61
2023-02-03T09:22:59.564Z,6.66
2023-02-03T09:25:29.974Z,6.65
2023-02-03T09:27:58.103Z,6.67
2023-02-03T09:30:24.841Z,6.65
2023-02-03T09:32:54.156Z,6.66
2023-02-03T09:35:21.152Z,6.72
2023-02-03T09:37:48.928Z,6.76
2023-02-03T09:40:22.205Z,6.77
2023-02-03T09:43:04.179Z,6.83
2023-02-03T09:45:32.106Z,6.88
2023-02-03T09:48:04.396Z,6.89
2023-02-03T09:50:36.031Z,6.93
2023-02-03T09:53:07.675Z,6.95
2023-02-03T09:55:39.480Z,6.99
2023-02-03T09:58:14.658Z,7.00
2023-02-03T10:00:44.871Z,6.98
2023-02-03T10:03:23.622Z,6.99
2023-02-03T10:06:16.084Z,6.94
2023-02-03T10:09:09.627Z,6.99
2023-02-03T10:11:53.402Z,6.99
2023-02-03T10:14:39.395Z,6.95
2023-02-03T10:17:22.884Z,6.93
2023-02-03T10:19:55.614Z,6.91
2023-02-03T10:22:28.133Z,6.96
2023-02-03T10:24:59.811Z,7.06
2023-02-03T10:27:29.336Z,7.08
2023-02-03T10:30:02.049Z,7.04
2023-02-03T10:32:29.025Z,7.00
2023-02-03T10:34:56.492Z,6.99
2023-02-03T10:37:29.330Z,7.02
2023-02-03T10:39:59.888Z,7.06
2023-02-03T10:42:49.099Z,7.07
2023-02-03T10:45:17.261Z,7.07
2023-02-03T10:47:48.300Z,7.09
2023-02-03T10:50:18.080Z,7.07
2023-02-03T10:52:45.178Z,7.09
2023-02-03T10:55:31.263Z,7.00
2023-02-03T10:58:06.467Z,6.95
2023-02-03T11:00:36.238Z,6.95
2023-02-03T11:03:06.546Z,6.88
2023-02-03T11:05:34.403Z,6.89
2023-02-03T11:08:01.063Z,6.90
2023-02-03T11:10:36.089Z,6.84
2023-02-03T11:13:12.906Z,6.82
2023-02-03T11:15:51.451Z,6.87
2023-02-03T11:18:44.466Z,6.92
2023-02-03T11:21:15.290Z,6.88
2023-02-03T11:23:49.700Z,6.82
2023-02-03T11:26:21.162Z,6.80
2023-02-03T11:28:50.464Z,6.79
2023-02-03T11:31:22.387Z,6.79
2023-02-03T11:33:53.811Z,6.79
2023-02-03T11:36:20.807Z,6.84
2023-02-03T11:38:51.281Z,6.87
2023-02-03T11:41:21.374Z,6.85
2023-02-03T11:43:49.530Z,6.82
2023-02-03T11:46:16.786Z,6.79
2023-02-03T11:48:57.651Z,6.73
2023-02-03T11:51:33.159Z,6.70
2023-02-03T11:54:13.509Z,6.68
2023-02-03T11:56:57.125Z,6.72
2023-02-03T11:59:41.003Z,6.74
2023-02-03T12:02:33.832Z,6.73
2023-02-03T12:08:08.203Z,6.80
2023-02-03T12:10:45.797Z,6.81
2023-02-03T12:13:30.373Z,6.78
2023-02-03T12:16:19.015Z,6.78
2023-02-03T12:18:55.131Z,6.76
2023-02-03T12:21:44.449Z,6.75
2023-02-03T12:24:25.533Z,6.81
2023-02-03T12:27:04.848Z,6.79
2023-02-03T12:29:38.519Z,6.77
2023-02-03T12:32:15.887Z,6.75
2023-02-03T12:34:50.493Z,6.73
2023-02-03T12:37:23.343Z,6.76
2023-02-03T12:39:53.783Z,6.81
2023-02-03T12:42:26.160Z,6.87
2023-02-03T12:44:58.880Z,6.91
2023-02-03T12:47:29.621Z,6.99
2023-02-03T12:50:02.036Z,7.01
2023-02-03T12:52:34.226Z,7.04
2023-02-03T12:55:16.583Z,7.12
2023-02-03T12:57:49.221Z,7.17
2023-02-03T13:00:21.939Z,7.24
2023-02-03T13:02:59.420Z,7.37
2023-02-03T13:05:32.878Z,7.43
2023-02-03T13:08:06.141Z,7.48
2023-02-03T13:10:40.240Z,7.50
2023-02-03T13:13:15.101Z,7.62
2023-02-03T13:15:45.812Z,7.68
2023-02-03T13:18:21.535Z,7.73
2023-02-03T13:20:48.524Z,7.67
2023-02-03T13:23:15.981Z,7.66
2023-02-03T13:25:58.123Z,7.64
2023-02-03T13:28:39.952Z,7.66
2023-02-03T13:31:23.346Z,7.64
2023-02-03T13:34:36.650Z,7.63
2023-02-03T13:37:35.998Z,7.64
2023-02-03T13:40:17.833Z,7.70
2023-02-03T13:42:52.012Z,7.73
2023-02-03T13:45:25.426Z,7.74
2023-02-03T13:47:55.357Z,7.72
2023-02-03T13:50:25.518Z,7.74
2023-02-03T13:53:00.134Z,7.80
2023-02-03T13:55:36.094Z,7.74
2023-02-03T13:58:06.589Z,7.69
2023-02-03T14:01:10.875Z,7.74
2023-02-03T14:03:43.820Z,7.74
2023-02-03T14:06:58.250Z,7.75
2023-02-03T14:09:38.251Z,7.84
2023-02-03T14:12:32.796Z,7.77
2023-02-03T14:15:23.034Z,7.76
2023-02-03T14:18:26.411Z,7.72
2023-02-03T14:21:08.595Z,7.70
2023-02-03T14:23:43.080Z,7.68
2023-02-03T14:26:20.732Z,7.59
2023-02-03T14:28:48.464Z,7.56
2023-02-03T14:31:18.621Z,7.53
2023-02-03T14:34:13.728Z,7.51
2023-02-03T14:36:44.527Z,7.46
2023-02-03T14:39:44.870Z,7.47
2023-02-03T14:42:34.027Z,7.47
2023-02-03T14:45:06.876Z,7.41
2023-02-03T14:47:49.883Z,7.36
2023-02-03T14:50:34.402Z,7.36
2023-02-03T14:53:18.477Z,7.32
2023-02-03T14:55:59.318Z,7.34
2023-02-03T14:58:34.325Z,7.31
2023-02-03T15:01:03.631Z,7.30
2023-02-03T15:03:31.518Z,7.31
2023-02-03T15:06:01.879Z,7.27
2023-02-03T15:08:42.368Z,7.25
2023-02-03T15:11:35.353Z,7.29
2023-02-03T15:14:24.028Z,7.27
2023-02-03T15:16:58.675Z,7.21
2023-02-03T15:19:28.126Z,7.21
2023-02-03T15:21:55.317Z,7.20
2023-02-03T15:24:24.059Z,7.25
2023-02-03T15:26:54.625Z,7.20
2023-02-03T15:29:27.885Z,7.20
2023-02-03T15:32:03.003Z,7.21
2023-02-03T15:34:36.183Z,7.18
2023-02-03T15:37:09.153Z,7.16
2023-02-03T15:39:46.094Z,7.13
2023-02-03T15:42:21.571Z,7.10
2023-02-03T15:44:57.696Z,7.09
2023-02-03T15:47:33.147Z,7.10
2023-02-03T15:50:06.328Z,7.06
2023-02-03T15:52:38.331Z,7.04
2023-02-03T15:55:17.819Z,7.07
2023-02-03T15:57:47.777Z,7.09
2023-02-03T16:00:30.730Z,7.11
2023-02-03T16:02:59.783Z,7.07
2023-02-03T16:05:32.088Z,7.07
2023-02-03T16:08:35.146Z,7.02
2023-02-03T16:11:02.604Z,6.96
2023-02-03T16:13:31.648Z,6.98
2023-02-03T16:16:18.951Z,6.99
2023-02-03T16:18:54.736Z,6.96
2023-02-03T16:21:29.186Z,6.95
2023-02-03T16:23:57.594Z,6.94
2023-02-03T16:26:26.475Z,6.96
2023-02-03T16:29:27.838Z,6.95
2023-02-03T16:32:15.570Z,6.94
2023-02-03T16:35:01.305Z,6.95
2023-02-03T16:37:49.227Z,6.94
2023-02-03T16:40:37.929Z,6.93
2023-02-03T16:43:28.249Z,6.89
2023-02-03T16:46:15.797Z,6.94
2023-02-03T16:49:02.944Z,6.93
2023-02-03T16:51:38.074Z,6.96
2023-02-03T16:54:05.813Z,6.97
2023-02-03T16:56:32.637Z,6.92
2023-02-03T16:58:59.874Z,6.92
2023-02-03T17:01:26.560Z,6.89
2023-02-03T17:03:54.941Z,6.91
2023-02-03T17:06:22.630Z,6.95
2023-02-03T17:08:50.183Z,6.96
2023-02-03T17:11:27.536Z,6.93
2023-02-03T17:13:57.931Z,6.98
2023-02-03T17:16:29.127Z,6.98
2023-02-03T17:18:57.917Z,6.96
2023-02-03T17:21:27.350Z,6.97
2023-02-03T17:23:54.556Z,6.97
2023-02-03T17:26:23.687Z,6.97
2023-02-03T17:29:01.876Z,6.95
2023-02-03T17:31:29.699Z,6.99
2023-02-03T17:33:59.760Z,6.99
2023-02-03T17:36:26.932Z,7.04
2023-02-03T17:55:26.938Z,7.14
2023-02-03T17:57:53.785Z,7.12
2023-02-03T18:00:21.603Z,7.11
2023-02-03T18:02:50.143Z,7.13
2023-02-03T18:05:24.795Z,7.12
2023-02-03T18:07:51.699Z,7.16
2023-02-03T18:10:22.613Z,7.16
2023-02-03T18:12:53.434Z,7.14
2023-02-03T18:15:20.619Z,7.14
2023-02-03T18:17:47.361Z,7.16
2023-02-03T18:20:15.599Z,7.16
2023-02-03T18:23:11.046Z,7.20
2023-02-03T18:25:38.399Z,7.18
2023-02-03T18:28:05.276Z,7.17
2023-02-03T18:33:12.789Z,7.17
2023-02-03T18:38:21.736Z,7.16
2023-02-03T18:40:48.755Z,7.21
2023-02-03T18:43:15.923Z,7.18
2023-02-03T18:45:42.905Z,7.16
2023-02-03T18:48:09.832Z,7.14
2023-02-03T18:53:18.610Z,7.14
2023-02-03T18:55:48.840Z,7.11
2023-02-03T19:03:38.053Z,7.08
2023-02-03T19:06:09.748Z,7.04
2023-02-03T19:08:36.776Z,7.01
2023-02-03T19:11:16.123Z,6.99
2023-02-03T19:13:45.833Z,7.00
2023-02-03T19:16:15.051Z,6.93
2023-02-03T19:21:25.298Z,6.86
2023-02-03T19:23:52.441Z,6.88
2023-02-03T19:26:21.442Z,6.80
2023-02-03T19:28:49.134Z,6.80
2023-02-03T19:31:16.853Z,6.75
2023-02-03T19:33:43.894Z,6.74
2023-02-03T19:36:11.609Z,6.74
2023-02-03T19:38:38.485Z,6.72
2023-02-03T19:41:07.156Z,6.70
2023-02-03T19:43:35.471Z,6.67
2023-02-03T19:46:02.749Z,6.65
2023-02-03T19:48:31.540Z,6.68
2023-02-03T19:50:59.031Z,6.65
2023-02-03T19:56:07.649Z,6.65
2023-02-03T19:58:41.883Z,6.63
2023-02-03T20:01:13.721Z,6.63
2023-02-03T20:06:24.487Z,6.67
2023-02-03T20:08:56.480Z,6.56
2023-02-03T20:11:25.165Z,6.56
2023-02-03T20:13:57.845Z,6.56
2023-02-03T20:16:25.146Z,6.57
2023-02-03T20:18:59.362Z,6.60
2023-02-03T20:29:34.710Z,6.48
2023-02-03T20:32:02.475Z,6.48
2023-02-03T20:34:35.255Z,6.44
2023-02-03T20:37:02.319Z,6.41
2023-02-03T20:39:29.521Z,6.33
2023-02-03T20:41:57.079Z,6.33
2023-02-03T20:44:31.617Z,6.29
2023-02-03T20:47:11.320Z,6.27
2023-02-03T20:49:38.486Z,6.22
2023-02-03T20:52:10.526Z,6.24
2023-02-03T20:54:43.247Z,6.29
2023-02-03T20:57:14.997Z,6.28
2023-02-03T20:59:46.727Z,6.23
2023-02-03T21:02:29.808Z,6.21
2023-02-03T21:05:00.820Z,6.15
2023-02-03T21:07:33.653Z,6.14
2023-02-03T21:12:59.469Z,6.09
2023-02-03T21:15:31.260Z,6.09
2023-02-03T21:18:25.639Z,6.11
2023-02-03T21:20:52.329Z,6.09
2023-02-03T21:23:26.766Z,6.07
2023-02-03T21:25:54.934Z,6.04
2023-02-03T21:28:25.837Z,6.03
2023-02-03T21:30:54.271Z,5.95
2023-02-03T21:33:32.437Z,5.92
2023-02-03T21:35:59.338Z,5.89
2023-02-03T21:38:30.795Z,5.88
2023-02-03T21:41:01.520Z,5.84
2023-02-03T21:43:30.133Z,5.84
2023-02-03T21:46:03.223Z,5.84
2023-02-03T21:48:38.995Z,5.81
2023-02-03T21:51:16.143Z,5.84
2023-02-03T21:53:49.267Z,5.85
2023-02-03T21:56:22.400Z,5.86
2023-02-03T21:59:02.971Z,5.87
2023-02-03T22:01:39.496Z,5.84
2023-02-03T22:04:29.423Z,5.80
2023-02-03T22:06:59.035Z,5.77
2023-02-03T22:09:29.905Z,5.76
2023-02-03T22:11:57.490Z,5.77
2023-02-03T22:14:27.453Z,5.80
2023-02-03T22:16:59.105Z,5.82
2023-02-03T22:22:15.754Z,5.82
2023-02-03T22:24:42.598Z,5.83
2023-02-03T22:27:10.409Z,5.81
2023-02-03T22:29:41.550Z,5.82
2023-02-03T22:32:10.718Z,5.82
2023-02-03T22:34:41.615Z,5.79
2023-02-03T22:37:08.450Z,5.83
2023-02-03T22:39:35.831Z,5.84
2023-02-03T22:42:04.421Z,5.84
2023-02-03T22:44:31.147Z,5.83
2023-02-03T22:46:58.671Z,5.81
2023-02-03T22:49:25.830Z,5.83
2023-02-03T22:51:56.137Z,5.80
2023-02-03T22:54:22.925Z,5.80
2023-02-03T22:56:50.264Z,5.80
2023-02-03T22:59:16.931Z,5.83
2023-02-03T23:01:44.961Z,5.81
2023-02-03T23:04:11.587Z,5.80
2023-02-03T23:06:39.406Z,5.73
2023-02-03T23:09:07.906Z,5.71
2023-02-03T23:11:35.858Z,5.73
2023-02-03T23:14:03.188Z,5.69
2023-02-03T23:16:31.162Z,5.68
2023-02-03T23:18:59.028Z,5.67
2023-02-03T23:21:25.891Z,5.66
2023-02-03T23:23:52.577Z,5.66
2023-02-03T23:26:21.661Z,5.69
2023-02-03T23:28:48.486Z,5.70
2023-02-03T23:31:16.614Z,5.72
2023-02-03T23:34:06.835Z,5.70
2023-02-03T23:36:41.587Z,5.65
2023-02-03T23:41:50.372Z,5.66
2023-02-03T23:44:17.123Z,5.65
2023-02-03T23:46:48.279Z,5.60
2023-02-03T23:49:15.002Z,5.60
2023-02-03T23:51:42.342Z,5.60
2023-02-03T23:56:53.012Z,5.59
